sensor_id;sensor_type;location;lat;lon;timestamp;temperature;humidity
20242;DHT22;10279;46.388;8.116;2023-02-02T00:01:20;4.70;99.90
20242;DHT22;10279;46.388;8.116;2023-02-02T00:03:48;4.70;99.90
20242;DHT22;10279;46.388;8.116;2023-02-02T00:06:24;4.70;99.90
20242;DHT22;10279;46.388;8.116;2023-02-02T00:08:52;4.70;99.90
20242;DHT22;10279;46.388;8.116;2023-02-02T00:11:19;4.70;99.90
20242;DHT22;10279;46.388;8.116;2023-02-02T00:13:46;4.70;99.90
20242;DHT22;10279;46.388;8.116;2023-02-02T00:18:53;4.70;99.90
20242;DHT22;10279;46.388;8.116;2023-02-02T00:21:22;4.70;99.90
20242;DHT22;10279;46.388;8.116;2023-02-02T00:23:50;4.70;99.90
20242;DHT22;10279;46.388;8.116;2023-02-02T00:26:17;4.70;99.90
20242;DHT22;10279;46.388;8.116;2023-02-02T00:28:45;4.70;99.90
20242;DHT22;10279;46.388;8.116;2023-02-02T00:31:12;4.70;99.90
20242;DHT22;10279;46.388;8.116;2023-02-02T00:33:43;4.70;99.90
20242;DHT22;10279;46.388;8.116;2023-02-02T00:36:10;4.70;99.90
20242;DHT22;10279;46.388;8.116;2023-02-02T00:38:37;4.70;99.90
20242;DHT22;10279;46.388;8.116;2023-02-02T00:41:04;4.60;99.90
20242;DHT22;10279;46.388;8.116;2023-02-02T00:43:31;4.50;99.90
20242;DHT22;10279;46.388;8.116;2023-02-02T00:45:58;4.50;99.90
20242;DHT22;10279;46.388;8.116;2023-02-02T00:48:26;4.50;99.90
20242;DHT22;10279;46.388;8.116;2023-02-02T00:50:53;4.50;99.90
20242;DHT22;10279;46.388;8.116;2023-02-02T00:53:20;4.60;99.90
20242;DHT22;10279;46.388;8.116;2023-02-02T00:55:47;4.50;99.90
20242;DHT22;10279;46.388;8.116;2023-02-02T00:58:14;4.40;99.90
20242;DHT22;10279;46.388;8.116;2023-02-02T01:00:41;4.40;99.90
20242;DHT22;10279;46.388;8.116;2023-02-02T01:03:08;4.40;99.90
20242;DHT22;10279;46.388;8.116;2023-02-02T01:05:36;4.40;99.90
20242;DHT22;10279;46.388;8.116;2023-02-02T01:08:03;4.40;99.90
20242;DHT22;10279;46.388;8.116;2023-02-02T01:10:30;4.50;99.90
20242;DHT22;10279;46.388;8.116;2023-02-02T01:12:57;4.50;99.90
20242;DHT22;10279;46.388;8.116;2023-02-02T01:15:24;4.60;99.90
20242;DHT22;10279;46.388;8.116;2023-02-02T01:17:51;4.60;99.90
20242;DHT22;10279;46.388;8.116;2023-02-02T01:20:19;4.40;99.90
20242;DHT22;10279;46.388;8.116;2023-02-02T01:22:46;4.20;99.90
20242;DHT22;10279;46.388;8.116;2023-02-02T01:25:14;4.20;99.90
20242;DHT22;10279;46.388;8.116;2023-02-02T01:27:40;4.30;99.90
20242;DHT22;10279;46.388;8.116;2023-02-02T01:30:09;4.40;99.90
20242;DHT22;10279;46.388;8.116;2023-02-02T01:32:36;4.50;99.90
20242;DHT22;10279;46.388;8.116;2023-02-02T01:35:04;4.30;99.90
20242;DHT22;10279;46.388;8.116;2023-02-02T01:37:33;4.20;99.90
20242;DHT22;10279;46.388;8.116;2023-02-02T01:40:00;3.90;99.90
20242;DHT22;10279;46.388;8.116;2023-02-02T01:42:27;3.80;99.90
20242;DHT22;10279;46.388;8.116;2023-02-02T01:45:24;3.70;99.90
20242;DHT22;10279;46.388;8.116;2023-02-02T01:47:56;3.60;99.90
20242;DHT22;10279;46.388;8.116;2023-02-02T01:50:28;3.60;99.90
20242;DHT22;10279;46.388;8.116;2023-02-02T01:52:58;3.70;99.90
20242;DHT22;10279;46.388;8.116;2023-02-02T01:55:28;3.60;99.90
20242;DHT22;10279;46.388;8.116;2023-02-02T01:58:05;3.50;99.90
20242;DHT22;10279;46.388;8.116;2023-02-02T02:00:34;3.50;99.90
20242;DHT22;10279;46.388;8.116;2023-02-02T02:03:05;3.50;99.90
20242;DHT22;10279;46.388;8.116;2023-02-02T02:05:47;3.60;99.90
20242;DHT22;10279;46.388;8.116;2023-02-02T02:08:18;3.70;99.90
20242;DHT22;10279;46.388;8.116;2023-02-02T02:10:46;3.70;99.90
20242;DHT22;10279;46.388;8.116;2023-02-02T02:13:14;3.50;99.90
20242;DHT22;10279;46.388;8.116;2023-02-02T02:16:05;3.40;99.90
20242;DHT22;10279;46.388;8.116;2023-02-02T02:18:53;3.40;99.90
20242;DHT22;10279;46.388;8.116;2023-02-02T02:30:42;3.00;99.90
20242;DHT22;10279;46.388;8.116;2023-02-02T02:39:32;2.60;99.90
20242;DHT22;10279;46.388;8.116;2023-02-02T02:42:03;2.60;99.90
20242;DHT22;10279;46.388;8.116;2023-02-02T02:44:33;2.60;99.90
20242;DHT22;10279;46.388;8.116;2023-02-02T02:47:02;2.60;99.90
20242;DHT22;10279;46.388;8.116;2023-02-02T02:49:29;2.70;99.90
20242;DHT22;10279;46.388;8.116;2023-02-02T02:51:56;2.80;99.90
20242;DHT22;10279;46.388;8.116;2023-02-02T02:54:32;2.70;99.90
20242;DHT22;10279;46.388;8.116;2023-02-02T03:02:46;2.70;99.90
20242;DHT22;10279;46.388;8.116;2023-02-02T03:07:51;2.80;99.90
20242;DHT22;10279;46.388;8.116;2023-02-02T03:10:23;2.80;99.90
20242;DHT22;10279;46.388;8.116;2023-02-02T03:12:53;2.80;99.90
20242;DHT22;10279;46.388;8.116;2023-02-02T03:15:20;2.90;99.90
20242;DHT22;10279;46.388;8.116;2023-02-02T03:17:49;2.90;99.90
20242;DHT22;10279;46.388;8.116;2023-02-02T03:20:18;2.90;99.90
20242;DHT22;10279;46.388;8.116;2023-02-02T03:22:45;2.90;99.90
20242;DHT22;10279;46.388;8.116;2023-02-02T03:25:13;3.10;99.90
20242;DHT22;10279;46.388;8.116;2023-02-02T03:27:41;3.30;99.90
20242;DHT22;10279;46.388;8.116;2023-02-02T03:30:11;3.40;99.90
20242;DHT22;10279;46.388;8.116;2023-02-02T03:32:39;3.40;99.90
20242;DHT22;10279;46.388;8.116;2023-02-02T03:35:07;3.50;99.90
20242;DHT22;10279;46.388;8.116;2023-02-02T03:37:37;3.30;99.90
20242;DHT22;10279;46.388;8.116;2023-02-02T03:40:05;3.10;99.90
20242;DHT22;10279;46.388;8.116;2023-02-02T03:42:32;3.10;99.90
20242;DHT22;10279;46.388;8.116;2023-02-02T03:44:59;3.10;99.90
20242;DHT22;10279;46.388;8.116;2023-02-02T03:47:29;3.20;99.90
20242;DHT22;10279;46.388;8.116;2023-02-02T03:49:57;3.30;99.90
20242;DHT22;10279;46.388;8.116;2023-02-02T03:52:24;3.40;99.90
20242;DHT22;10279;46.388;8.116;2023-02-02T03:54:52;3.50;99.90
20242;DHT22;10279;46.388;8.116;2023-02-02T03:57:19;3.50;99.90
20242;DHT22;10279;46.388;8.116;2023-02-02T03:59:46;3.70;99.90
20242;DHT22;10279;46.388;8.116;2023-02-02T04:02:13;3.80;99.90
20242;DHT22;10279;46.388;8.116;2023-02-02T04:04:40;3.90;99.90
20242;DHT22;10279;46.388;8.116;2023-02-02T04:07:07;3.90;99.90
20242;DHT22;10279;46.388;8.116;2023-02-02T04:09:34;3.90;99.90
20242;DHT22;10279;46.388;8.116;2023-02-02T04:12:01;3.70;99.90
20242;DHT22;10279;46.388;8.116;2023-02-02T04:14:28;3.40;99.90
20242;DHT22;10279;46.388;8.116;2023-02-02T04:16:55;3.20;99.90
20242;DHT22;10279;46.388;8.116;2023-02-02T04:19:22;3.10;99.90
20242;DHT22;10279;46.388;8.116;2023-02-02T04:21:49;3.10;99.90
20242;DHT22;10279;46.388;8.116;2023-02-02T04:24:16;3.30;99.90
20242;DHT22;10279;46.388;8.116;2023-02-02T04:26:43;3.40;99.90
20242;DHT22;10279;46.388;8.116;2023-02-02T04:29:10;3.30;99.90
20242;DHT22;10279;46.388;8.116;2023-02-02T04:31:37;3.40;99.90
20242;DHT22;10279;46.388;8.116;2023-02-02T04:34:04;3.40;99.90
20242;DHT22;10279;46.388;8.116;2023-02-02T04:36:31;3.60;99.90
20242;DHT22;10279;46.388;8.116;2023-02-02T04:38:59;3.70;99.90
20242;DHT22;10279;46.388;8.116;2023-02-02T04:41:26;3.80;99.90
20242;DHT22;10279;46.388;8.116;2023-02-02T04:43:53;3.80;99.90
20242;DHT22;10279;46.388;8.116;2023-02-02T04:46:20;3.90;99.90
20242;DHT22;10279;46.388;8.116;2023-02-02T04:48:48;4.00;99.90
20242;DHT22;10279;46.388;8.116;2023-02-02T04:51:15;4.00;99.90
20242;DHT22;10279;46.388;8.116;2023-02-02T04:53:44;4.10;99.90
20242;DHT22;10279;46.388;8.116;2023-02-02T04:56:13;4.20;99.90
20242;DHT22;10279;46.388;8.116;2023-02-02T04:58:42;4.30;99.90
20242;DHT22;10279;46.388;8.116;2023-02-02T05:01:19;4.30;99.90
20242;DHT22;10279;46.388;8.116;2023-02-02T05:03:47;4.30;99.90
20242;DHT22;10279;46.388;8.116;2023-02-02T05:06:15;4.40;99.90
20242;DHT22;10279;46.388;8.116;2023-02-02T05:08:43;4.40;99.90
20242;DHT22;10279;46.388;8.116;2023-02-02T05:11:17;4.30;99.90
20242;DHT22;10279;46.388;8.116;2023-02-02T05:13:53;4.40;99.90
20242;DHT22;10279;46.388;8.116;2023-02-02T05:16:21;4.40;99.90
20242;DHT22;10279;46.388;8.116;2023-02-02T05:18:54;4.40;99.90
20242;DHT22;10279;46.388;8.116;2023-02-02T05:21:23;4.50;99.90
20242;DHT22;10279;46.388;8.116;2023-02-02T05:23:50;4.50;99.90
20242;DHT22;10279;46.388;8.116;2023-02-02T05:26:20;4.40;99.90
20242;DHT22;10279;46.388;8.116;2023-02-02T05:28:48;4.30;99.90
20242;DHT22;10279;46.388;8.116;2023-02-02T05:31:15;4.20;99.90
20242;DHT22;10279;46.388;8.116;2023-02-02T05:33:42;4.00;99.90
20242;DHT22;10279;46.388;8.116;2023-02-02T05:36:11;3.80;99.90
20242;DHT22;10279;46.388;8.116;2023-02-02T05:38:38;3.80;99.90
20242;DHT22;10279;46.388;8.116;2023-02-02T05:41:05;3.60;99.90
20242;DHT22;10279;46.388;8.116;2023-02-02T05:43:33;3.50;99.90
20242;DHT22;10279;46.388;8.116;2023-02-02T05:46:00;3.40;99.90
20242;DHT22;10279;46.388;8.116;2023-02-02T05:48:28;3.40;99.90
20242;DHT22;10279;46.388;8.116;2023-02-02T05:51:48;3.50;99.90
20242;DHT22;10279;46.388;8.116;2023-02-02T05:54:07;3.50;99.90
20242;DHT22;10279;46.388;8.116;2023-02-02T05:56:34;3.50;99.90
20242;DHT22;10279;46.388;8.116;2023-02-02T05:59:01;3.50;99.90
20242;DHT22;10279;46.388;8.116;2023-02-02T06:01:33;3.50;99.90
20242;DHT22;10279;46.388;8.116;2023-02-02T06:04:00;3.40;99.90
20242;DHT22;10279;46.388;8.116;2023-02-02T06:06:27;3.30;99.90
20242;DHT22;10279;46.388;8.116;2023-02-02T06:08:54;3.30;99.90
20242;DHT22;10279;46.388;8.116;2023-02-02T06:11:21;3.40;99.90
20242;DHT22;10279;46.388;8.116;2023-02-02T06:13:48;3.50;99.90
20242;DHT22;10279;46.388;8.116;2023-02-02T06:16:16;3.60;99.90
20242;DHT22;10279;46.388;8.116;2023-02-02T06:18:43;3.70;99.90
20242;DHT22;10279;46.388;8.116;2023-02-02T06:21:10;3.70;99.90
20242;DHT22;10279;46.388;8.116;2023-02-02T06:23:38;3.70;99.90
20242;DHT22;10279;46.388;8.116;2023-02-02T06:26:09;3.70;99.90
20242;DHT22;10279;46.388;8.116;2023-02-02T06:28:36;3.80;99.90
20242;DHT22;10279;46.388;8.116;2023-02-02T06:31:08;3.90;99.90
20242;DHT22;10279;46.388;8.116;2023-02-02T06:33:36;3.90;99.90
20242;DHT22;10279;46.388;8.116;2023-02-02T06:36:05;4.10;99.90
20242;DHT22;10279;46.388;8.116;2023-02-02T06:38:32;4.20;99.90
20242;DHT22;10279;46.388;8.116;2023-02-02T06:41:00;4.20;99.90
20242;DHT22;10279;46.388;8.116;2023-02-02T06:43:28;4.20;99.90
20242;DHT22;10279;46.388;8.116;2023-02-02T06:45:58;4.20;99.90
20242;DHT22;10279;46.388;8.116;2023-02-02T06:48:26;4.30;99.90
20242;DHT22;10279;46.388;8.116;2023-02-02T06:50:56;4.30;99.90
20242;DHT22;10279;46.388;8.116;2023-02-02T06:53:23;4.40;99.90
20242;DHT22;10279;46.388;8.116;2023-02-02T06:56:01;4.40;99.90
20242;DHT22;10279;46.388;8.116;2023-02-02T06:58:30;4.40;99.90
20242;DHT22;10279;46.388;8.116;2023-02-02T07:01:02;4.40;99.90
20242;DHT22;10279;46.388;8.116;2023-02-02T07:03:30;4.40;99.90
20242;DHT22;10279;46.388;8.116;2023-02-02T07:05:58;4.00;99.90
20242;DHT22;10279;46.388;8.116;2023-02-02T07:08:25;3.80;99.90
20242;DHT22;10279;46.388;8.116;2023-02-02T07:10:52;3.70;99.90
20242;DHT22;10279;46.388;8.116;2023-02-02T07:13:39;3.70;99.90
20242;DHT22;10279;46.388;8.116;2023-02-02T07:16:07;3.70;99.90
20242;DHT22;10279;46.388;8.116;2023-02-02T07:18:35;3.80;99.90
20242;DHT22;10279;46.388;8.116;2023-02-02T07:21:06;3.70;99.90
20242;DHT22;10279;46.388;8.116;2023-02-02T07:23:33;3.60;99.90
20242;DHT22;10279;46.388;8.116;2023-02-02T07:26:08;3.50;99.90
20242;DHT22;10279;46.388;8.116;2023-02-02T07:28:35;3.60;99.90
20242;DHT22;10279;46.388;8.116;2023-02-02T07:33:44;3.20;99.90
20242;DHT22;10279;46.388;8.116;2023-02-02T07:36:14;3.00;99.90
20242;DHT22;10279;46.388;8.116;2023-02-02T07:38:46;2.80;99.90
20242;DHT22;10279;46.388;8.116;2023-02-02T07:41:14;2.70;99.90
20242;DHT22;10279;46.388;8.116;2023-02-02T07:43:41;2.60;99.90
20242;DHT22;10279;46.388;8.116;2023-02-02T07:46:09;2.70;99.90
20242;DHT22;10279;46.388;8.116;2023-02-02T07:48:39;2.80;99.90
20242;DHT22;10279;46.388;8.116;2023-02-02T07:51:09;2.80;99.90
20242;DHT22;10279;46.388;8.116;2023-02-02T07:53:37;2.70;99.90
20242;DHT22;10279;46.388;8.116;2023-02-02T07:56:15;2.70;99.90
20242;DHT22;10279;46.388;8.116;2023-02-02T07:58:43;2.70;99.90
20242;DHT22;10279;46.388;8.116;2023-02-02T08:01:12;2.70;99.90
20242;DHT22;10279;46.388;8.116;2023-02-02T08:03:40;2.80;99.90
20242;DHT22;10279;46.388;8.116;2023-02-02T08:06:16;2.90;99.90
20242;DHT22;10279;46.388;8.116;2023-02-02T08:08:43;3.20;99.90
20242;DHT22;10279;46.388;8.116;2023-02-02T08:11:12;3.30;99.90
20242;DHT22;10279;46.388;8.116;2023-02-02T08:13:40;3.40;99.90
20242;DHT22;10279;46.388;8.116;2023-02-02T08:16:08;3.30;99.90
20242;DHT22;10279;46.388;8.116;2023-02-02T08:18:36;3.30;99.90
20242;DHT22;10279;46.388;8.116;2023-02-02T08:21:06;3.40;99.90
20242;DHT22;10279;46.388;8.116;2023-02-02T08:23:36;3.20;99.90
20242;DHT22;10279;46.388;8.116;2023-02-02T08:26:13;3.00;99.90
20242;DHT22;10279;46.388;8.116;2023-02-02T08:28:41;3.10;99.90
20242;DHT22;10279;46.388;8.116;2023-02-02T08:31:11;3.00;99.90
20242;DHT22;10279;46.388;8.116;2023-02-02T08:33:39;3.10;99.90
20242;DHT22;10279;46.388;8.116;2023-02-02T08:36:15;3.20;99.90
20242;DHT22;10279;46.388;8.116;2023-02-02T08:38:42;3.40;99.90
20242;DHT22;10279;46.388;8.116;2023-02-02T08:41:11;3.50;99.90
20242;DHT22;10279;46.388;8.116;2023-02-02T08:43:40;3.70;99.90
20242;DHT22;10279;46.388;8.116;2023-02-02T08:46:09;3.80;99.90
20242;DHT22;10279;46.388;8.116;2023-02-02T08:48:37;3.80;99.90
20242;DHT22;10279;46.388;8.116;2023-02-02T08:51:05;3.90;99.90
20242;DHT22;10279;46.388;8.116;2023-02-02T08:53:33;4.00;99.90
20242;DHT22;10279;46.388;8.116;2023-02-02T08:56:05;4.20;99.90
20242;DHT22;10279;46.388;8.116;2023-02-02T08:58:33;4.20;99.90
20242;DHT22;10279;46.388;8.116;2023-02-02T09:01:16;4.30;99.90
20242;DHT22;10279;46.388;8.116;2023-02-02T09:03:44;4.40;99.90
20242;DHT22;10279;46.388;8.116;2023-02-02T09:06:14;4.40;99.90
20242;DHT22;10279;46.388;8.116;2023-02-02T09:08:41;4.50;99.90
20242;DHT22;10279;46.388;8.116;2023-02-02T09:11:11;4.50;99.90
20242;DHT22;10279;46.388;8.116;2023-02-02T09:13:39;4.60;99.90
20242;DHT22;10279;46.388;8.116;2023-02-02T09:16:09;4.70;99.90
20242;DHT22;10279;46.388;8.116;2023-02-02T09:18:37;4.80;99.90
20242;DHT22;10279;46.388;8.116;2023-02-02T09:21:07;4.80;99.90
20242;DHT22;10279;46.388;8.116;2023-02-02T09:23:37;4.80;99.90
20242;DHT22;10279;46.388;8.116;2023-02-02T09:26:24;4.80;99.90
20242;DHT22;10279;46.388;8.116;2023-02-02T09:29:00;4.80;99.90
20242;DHT22;10279;46.388;8.116;2023-02-02T09:31:31;4.90;99.90
20242;DHT22;10279;46.388;8.116;2023-02-02T09:34:07;4.80;99.90
20242;DHT22;10279;46.388;8.116;2023-02-02T09:36:35;4.80;99.90
20242;DHT22;10279;46.388;8.116;2023-02-02T09:39:03;4.60;99.90
20242;DHT22;10279;46.388;8.116;2023-02-02T09:52:40;4.10;99.90
20242;DHT22;10279;46.388;8.116;2023-02-02T10:01:11;3.60;99.90
20242;DHT22;10279;46.388;8.116;2023-02-02T10:03:59;3.70;99.90
20242;DHT22;10279;46.388;8.116;2023-02-02T10:06:36;3.90;99.90
20242;DHT22;10279;46.388;8.116;2023-02-02T10:18:29;4.20;99.90
20242;DHT22;10279;46.388;8.116;2023-02-02T10:21:11;4.10;99.90
20242;DHT22;10279;46.388;8.116;2023-02-02T10:23:44;4.10;99.90
20242;DHT22;10279;46.388;8.116;2023-02-02T10:26:22;4.30;99.90
20242;DHT22;10279;46.388;8.116;2023-02-02T10:34:41;4.50;99.90
20242;DHT22;10279;46.388;8.116;2023-02-02T10:37:25;4.70;99.90
20242;DHT22;10279;46.388;8.116;2023-02-02T10:40:04;4.60;99.90
20242;DHT22;10279;46.388;8.116;2023-02-02T10:45:13;4.50;99.90
20242;DHT22;10279;46.388;8.116;2023-02-02T10:47:41;4.50;99.90
20242;DHT22;10279;46.388;8.116;2023-02-02T10:52:48;4.80;99.90
20242;DHT22;10279;46.388;8.116;2023-02-02T11:00:50;5.00;99.90
20242;DHT22;10279;46.388;8.116;2023-02-02T11:03:24;5.10;99.90
20242;DHT22;10279;46.388;8.116;2023-02-02T11:05:52;5.10;99.90
20242;DHT22;10279;46.388;8.116;2023-02-02T11:08:42;5.20;99.90
20242;DHT22;10279;46.388;8.116;2023-02-02T11:11:30;5.10;99.90
20242;DHT22;10279;46.388;8.116;2023-02-02T11:14:03;5.10;99.90
20242;DHT22;10279;46.388;8.116;2023-02-02T11:16:41;5.10;99.90
20242;DHT22;10279;46.388;8.116;2023-02-02T11:19:29;4.90;99.90
20242;DHT22;10279;46.388;8.116;2023-02-02T11:22:00;5.00;99.90
20242;DHT22;10279;46.388;8.116;2023-02-02T11:24:46;5.10;99.90
20242;DHT22;10279;46.388;8.116;2023-02-02T11:27:31;5.20;99.90
20242;DHT22;10279;46.388;8.116;2023-02-02T11:30:08;5.40;99.90
20242;DHT22;10279;46.388;8.116;2023-02-02T11:32:37;5.50;99.90
20242;DHT22;10279;46.388;8.116;2023-02-02T11:37:38;5.80;99.90
20242;DHT22;10279;46.388;8.116;2023-02-02T11:40:31;5.90;99.90
20242;DHT22;10279;46.388;8.116;2023-02-02T11:43:01;6.00;99.90
20242;DHT22;10279;46.388;8.116;2023-02-02T11:45:37;6.10;99.90
20242;DHT22;10279;46.388;8.116;2023-02-02T11:48:19;6.20;99.90
20242;DHT22;10279;46.388;8.116;2023-02-02T11:50:49;6.40;99.90
20242;DHT22;10279;46.388;8.116;2023-02-02T11:53:25;6.40;99.90
20242;DHT22;10279;46.388;8.116;2023-02-02T11:55:54;6.50;99.90
20242;DHT22;10279;46.388;8.116;2023-02-02T11:58:28;6.60;99.90
20242;DHT22;10279;46.388;8.116;2023-02-02T12:01:01;6.60;99.90
20242;DHT22;10279;46.388;8.116;2023-02-02T12:03:33;6.70;99.90
20242;DHT22;10279;46.388;8.116;2023-02-02T12:06:20;6.70;99.90
20242;DHT22;10279;46.388;8.116;2023-02-02T12:08:48;6.70;99.90
20242;DHT22;10279;46.388;8.116;2023-02-02T12:17:28;6.80;99.90
20242;DHT22;10279;46.388;8.116;2023-02-02T12:33:45;7.10;99.90
20242;DHT22;10279;46.388;8.116;2023-02-02T12:42:10;7.30;99.90
20242;DHT22;10279;46.388;8.116;2023-02-02T12:44:53;7.30;99.90
20242;DHT22;10279;46.388;8.116;2023-02-02T12:50:23;7.70;99.90
20242;DHT22;10279;46.388;8.116;2023-02-02T13:04:48;9.20;99.90
20242;DHT22;10279;46.388;8.116;2023-02-02T13:07:48;9.60;99.90
20242;DHT22;10279;46.388;8.116;2023-02-02T13:10:38;10.20;99.90
20242;DHT22;10279;46.388;8.116;2023-02-02T13:13:13;10.40;99.90
20242;DHT22;10279;46.388;8.116;2023-02-02T13:15:45;10.30;99.90
20242;DHT22;10279;46.388;8.116;2023-02-02T13:18:18;10.00;99.90
20242;DHT22;10279;46.388;8.116;2023-02-02T13:20:50;10.10;99.90
20242;DHT22;10279;46.388;8.116;2023-02-02T13:23:33;10.20;99.70
20242;DHT22;10279;46.388;8.116;2023-02-02T13:26:15;10.10;99.30
20242;DHT22;10279;46.388;8.116;2023-02-02T13:28:51;9.90;99.20
20242;DHT22;10279;46.388;8.116;2023-02-02T13:32:04;9.60;99.60
20242;DHT22;10279;46.388;8.116;2023-02-02T13:37:44;9.40;99.70
20242;DHT22;10279;46.388;8.116;2023-02-02T13:46:00;9.60;99.90
20242;DHT22;10279;46.388;8.116;2023-02-02T13:51:50;9.90;99.60
20242;DHT22;10279;46.388;8.116;2023-02-02T13:57:28;10.80;99.20
20242;DHT22;10279;46.388;8.116;2023-02-02T14:00:11;10.90;98.10
20242;DHT22;10279;46.388;8.116;2023-02-02T14:05:23;11.00;98.30
20242;DHT22;10279;46.388;8.116;2023-02-02T14:08:02;11.20;98.10
20242;DHT22;10279;46.388;8.116;2023-02-02T14:15:38;10.90;98.10
20242;DHT22;10279;46.388;8.116;2023-02-02T14:18:06;10.90;97.60
20242;DHT22;10279;46.388;8.116;2023-02-02T14:20:42;10.60;97.20
20242;DHT22;10279;46.388;8.116;2023-02-02T14:26:19;9.80;98.20
20242;DHT22;10279;46.388;8.116;2023-02-02T14:28:49;9.60;98.00
20242;DHT22;10279;46.388;8.116;2023-02-02T14:31:40;9.40;98.30
20242;DHT22;10279;46.388;8.116;2023-02-02T14:48:41;10.50;96.90
20242;DHT22;10279;46.388;8.116;2023-02-02T14:51:23;10.10;97.40
20242;DHT22;10279;46.388;8.116;2023-02-02T14:53:56;9.90;97.90
20242;DHT22;10279;46.388;8.116;2023-02-02T14:59:31;10.30;99.00
20242;DHT22;10279;46.388;8.116;2023-02-02T15:02:22;10.40;97.30
20242;DHT22;10279;46.388;8.116;2023-02-02T15:04:50;9.90;97.90
20242;DHT22;10279;46.388;8.116;2023-02-02T15:09:53;9.60;98.20
20242;DHT22;10279;46.388;8.116;2023-02-02T15:12:32;9.50;98.70
20242;DHT22;10279;46.388;8.116;2023-02-02T15:15:05;9.80;98.80
20242;DHT22;10279;46.388;8.116;2023-02-02T15:20:13;10.30;98.10
20242;DHT22;10279;46.388;8.116;2023-02-02T15:23:07;10.40;97.50
20242;DHT22;10279;46.388;8.116;2023-02-02T15:28:24;9.40;99.40
20242;DHT22;10279;46.388;8.116;2023-02-02T15:30:59;9.30;99.80
20242;DHT22;10279;46.388;8.116;2023-02-02T15:33:38;9.40;98.90
20242;DHT22;10279;46.388;8.116;2023-02-02T15:38:39;9.30;98.00
20242;DHT22;10279;46.388;8.116;2023-02-02T15:41:31;9.20;98.50
20242;DHT22;10279;46.388;8.116;2023-02-02T15:43:59;9.00;98.60
20242;DHT22;10279;46.388;8.116;2023-02-02T15:46:32;8.80;99.80
20242;DHT22;10279;46.388;8.116;2023-02-02T15:49:15;8.70;99.60
20242;DHT22;10279;46.388;8.116;2023-02-02T15:54:37;8.60;99.50
20242;DHT22;10279;46.388;8.116;2023-02-02T15:57:33;8.40;99.80
20242;DHT22;10279;46.388;8.116;2023-02-02T16:02:55;7.40;99.90
20242;DHT22;10279;46.388;8.116;2023-02-02T16:05:41;7.30;99.90
20242;DHT22;10279;46.388;8.116;2023-02-02T16:08:19;7.30;99.90
20242;DHT22;10279;46.388;8.116;2023-02-02T16:10:46;7.30;99.90
20242;DHT22;10279;46.388;8.116;2023-02-02T16:13:26;7.40;99.90
20242;DHT22;10279;46.388;8.116;2023-02-02T16:15:59;7.50;99.90
20242;DHT22;10279;46.388;8.116;2023-02-02T16:18:27;7.40;99.90
20242;DHT22;10279;46.388;8.116;2023-02-02T16:20:55;7.00;99.90
20242;DHT22;10279;46.388;8.116;2023-02-02T16:23:32;6.70;99.90
20242;DHT22;10279;46.388;8.116;2023-02-02T16:26:02;6.40;99.90
20242;DHT22;10279;46.388;8.116;2023-02-02T16:28:30;6.40;99.90
20242;DHT22;10279;46.388;8.116;2023-02-02T16:30:59;6.50;99.90
20242;DHT22;10279;46.388;8.116;2023-02-02T16:33:43;6.50;99.90
20242;DHT22;10279;46.388;8.116;2023-02-02T16:36:24;6.60;99.90
20242;DHT22;10279;46.388;8.116;2023-02-02T16:38:53;6.60;99.90
20242;DHT22;10279;46.388;8.116;2023-02-02T16:41:36;6.60;99.90
20242;DHT22;10279;46.388;8.116;2023-02-02T16:44:40;6.60;99.90
20242;DHT22;10279;46.388;8.116;2023-02-02T16:50:02;6.40;99.90
20242;DHT22;10279;46.388;8.116;2023-02-02T16:55:16;6.20;99.90
20242;DHT22;10279;46.388;8.116;2023-02-02T16:57:44;6.30;99.90
20242;DHT22;10279;46.388;8.116;2023-02-02T17:00:21;6.30;99.90
20242;DHT22;10279;46.388;8.116;2023-02-02T17:02:53;6.40;99.90
20242;DHT22;10279;46.388;8.116;2023-02-02T17:05:26;6.40;99.90
20242;DHT22;10279;46.388;8.116;2023-02-02T17:08:03;6.40;99.90
20242;DHT22;10279;46.388;8.116;2023-02-02T17:10:37;6.40;99.90
20242;DHT22;10279;46.388;8.116;2023-02-02T17:15:57;6.30;99.90
20242;DHT22;10279;46.388;8.116;2023-02-02T17:18:24;6.30;99.90
20242;DHT22;10279;46.388;8.116;2023-02-02T17:20:54;6.30;99.90
20242;DHT22;10279;46.388;8.116;2023-02-02T17:23:31;6.20;99.90
20242;DHT22;10279;46.388;8.116;2023-02-02T17:26:02;6.20;99.90
20242;DHT22;10279;46.388;8.116;2023-02-02T17:28:30;6.20;99.90
20242;DHT22;10279;46.388;8.116;2023-02-02T17:31:04;6.20;99.90
20242;DHT22;10279;46.388;8.116;2023-02-02T17:33:33;6.20;99.90
20242;DHT22;10279;46.388;8.116;2023-02-02T17:36:01;6.20;99.90
20242;DHT22;10279;46.388;8.116;2023-02-02T17:38:28;6.10;99.90
20242;DHT22;10279;46.388;8.116;2023-02-02T17:40:59;6.10;99.90
20242;DHT22;10279;46.388;8.116;2023-02-02T17:43:28;6.10;99.90
20242;DHT22;10279;46.388;8.116;2023-02-02T17:45:58;6.20;99.90
20242;DHT22;10279;46.388;8.116;2023-02-02T17:48:25;6.20;99.90
20242;DHT22;10279;46.388;8.116;2023-02-02T17:50:52;6.10;99.90
20242;DHT22;10279;46.388;8.116;2023-02-02T17:53:20;6.10;99.90
20242;DHT22;10279;46.388;8.116;2023-02-02T17:55:48;6.00;99.90
20242;DHT22;10279;46.388;8.116;2023-02-02T17:58:16;6.00;99.90
20242;DHT22;10279;46.388;8.116;2023-02-02T18:00:52;5.90;99.90
20242;DHT22;10279;46.388;8.116;2023-02-02T18:03:24;6.00;99.90
20242;DHT22;10279;46.388;8.116;2023-02-02T18:05:52;5.90;99.90
20242;DHT22;10279;46.388;8.116;2023-02-02T18:08:19;5.90;99.90
20242;DHT22;10279;46.388;8.116;2023-02-02T18:10:46;5.80;99.90
20242;DHT22;10279;46.388;8.116;2023-02-02T18:13:14;5.80;99.90
20242;DHT22;10279;46.388;8.116;2023-02-02T18:15:42;5.80;99.90
20242;DHT22;10279;46.388;8.116;2023-02-02T18:18:10;5.80;99.90
20242;DHT22;10279;46.388;8.116;2023-02-02T18:20:42;5.70;99.90
20242;DHT22;10279;46.388;8.116;2023-02-02T18:23:09;5.70;99.90
20242;DHT22;10279;46.388;8.116;2023-02-02T18:25:37;5.60;99.90
20242;DHT22;10279;46.388;8.116;2023-02-02T18:28:06;5.60;99.90
20242;DHT22;10279;46.388;8.116;2023-02-02T18:30:33;5.50;99.90
20242;DHT22;10279;46.388;8.116;2023-02-02T18:33:00;5.50;99.90
20242;DHT22;10279;46.388;8.116;2023-02-02T18:35:27;5.40;99.90
20242;DHT22;10279;46.388;8.116;2023-02-02T18:37:54;5.40;99.90
20242;DHT22;10279;46.388;8.116;2023-02-02T18:40:21;5.40;99.90
20242;DHT22;10279;46.388;8.116;2023-02-02T18:42:48;5.40;99.90
20242;DHT22;10279;46.388;8.116;2023-02-02T18:45:16;5.40;99.90
20242;DHT22;10279;46.388;8.116;2023-02-02T18:47:43;5.50;99.90
20242;DHT22;10279;46.388;8.116;2023-02-02T18:50:10;5.40;99.90
20242;DHT22;10279;46.388;8.116;2023-02-02T18:52:36;5.30;99.90
20242;DHT22;10279;46.388;8.116;2023-02-02T18:55:03;5.20;99.90
20242;DHT22;10279;46.388;8.116;2023-02-02T18:57:30;5.30;99.90
20242;DHT22;10279;46.388;8.116;2023-02-02T18:59:57;5.30;99.90
20242;DHT22;10279;46.388;8.116;2023-02-02T19:02:24;5.30;99.90
20242;DHT22;10279;46.388;8.116;2023-02-02T19:04:52;5.20;99.90
20242;DHT22;10279;46.388;8.116;2023-02-02T19:07:37;5.20;99.90
20242;DHT22;10279;46.388;8.116;2023-02-02T19:10:24;5.10;99.90
20242;DHT22;10279;46.388;8.116;2023-02-02T19:15:38;5.10;99.90
20242;DHT22;10279;46.388;8.116;2023-02-02T19:18:16;5.10;99.90